Time;durP1;ratioP1;P1;durP2;ratioP2;P2;SDS_P1;SDS_P2;PMS_P1;PMS_P2;Temp;Humidity;BMP_temperature;BMP_pressure;BME280_temperature;BME280_humidity;BME280_pressure;Samples;Min_cycle;Max_cycle;Signal;HPM_P1;HPM_P2
2023/07/22 00:01:02;;;;;;;3.55;3.25;;;;;;;;;;5002082;28;20224;-67
2023/07/22 00:03:30;;;;;;;3.47;3.17;;;;;;;;;;5001982;28;20216;-67
2023/07/22 00:06:06;;;;;;;4.18;3.20;;;;;;;;;;5003317;28;20201;-66
2023/07/22 00:08:33;;;;;;;3.50;3.10;;;;;;;;;;5008497;28;20235;-66
2023/07/22 00:11:01;;;;;;;3.25;3.03;;;;;;;;;;5009021;28;20216;-67
2023/07/22 00:13:28;;;;;;;4.70;3.50;;;;;;;;;;5003901;28;20224;-66
2023/07/22 00:15:56;;;;;;;3.47;3.17;;;;;;;;;;5004487;28;20242;-67
2023/07/22 00:18:23;;;;;;;4.50;3.55;;;;;;;;;;5008370;28;20208;-66
2023/07/22 00:20:51;;;;;;;3.42;3.10;;;;;;;;;;5006336;28;20233;-66
2023/07/22 00:23:20;;;;;;;3.28;3.03;;;;;;;;;;5008243;28;20206;-66
2023/07/22 00:25:48;;;;;;;4.35;3.03;;;;;;;;;;5009033;28;20239;-66
2023/07/22 00:28:16;;;;;;;3.90;2.80;;;;;;;;;;5009319;28;20208;-66
2023/07/22 00:30:43;;;;;;;3.25;3.05;;;;;;;;;;5005696;28;20300;-66
2023/07/22 00:33:10;;;;;;;3.53;2.92;;;;;;;;;;5002242;28;20213;-67
2023/07/22 00:35:38;;;;;;;4.13;2.85;;;;;;;;;;5006969;28;20275;-66
2023/07/22 00:38:05;;;;;;;3.15;2.95;;;;;;;;;;5000819;28;20205;-66
2023/07/22 00:40:34;;;;;;;3.35;2.92;;;;;;;;;;5004627;28;20206;-66
2023/07/22 00:43:01;;;;;;;3.10;2.80;;;;;;;;;;5008426;28;20305;-66
2023/07/22 00:45:29;;;;;;;2.47;2.38;;;;;;;;;;5002178;28;20332;-66
2023/07/22 00:47:56;;;;;;;4.05;2.65;;;;;;;;;;5007587;28;20208;-66
2023/07/22 00:50:23;;;;;;;2.97;2.78;;;;;;;;;;5007182;28;20215;-66
2023/07/22 00:52:50;;;;;;;2.90;2.28;;;;;;;;;;5005538;28;20201;-66
2023/07/22 00:55:17;;;;;;;3.00;2.70;;;;;;;;;;5005716;28;20201;-66
2023/07/22 00:57:47;;;;;;;2.53;2.33;;;;;;;;;;5004599;28;20205;-66
2023/07/22 01:00:16;;;;;;;3.45;2.80;;;;;;;;;;5008858;28;20215;-67
2023/07/22 01:02:44;;;;;;;3.05;2.65;;;;;;;;;;5001797;28;20229;-66
2023/07/22 01:05:12;;;;;;;3.35;3.05;;;;;;;;;;5006901;28;20277;-66
2023/07/22 01:07:39;;;;;;;2.47;2.20;;;;;;;;;;5006560;28;20259;-68
2023/07/22 01:10:08;;;;;;;2.58;2.38;;;;;;;;;;5008239;28;20197;-67
2023/07/22 01:12:35;;;;;;;3.45;2.20;;;;;;;;;;5006247;28;20209;-67
2023/07/22 01:15:07;;;;;;;2.90;2.20;;;;;;;;;;5008979;28;20200;-67
2023/07/22 01:17:34;;;;;;;2.53;2.33;;;;;;;;;;5009868;28;20208;-67
2023/07/22 01:20:02;;;;;;;2.65;2.20;;;;;;;;;;5003842;28;20258;-68
2023/07/22 01:22:30;;;;;;;3.63;2.47;;;;;;;;;;5009303;28;20209;-67
2023/07/22 01:24:59;;;;;;;2.90;2.60;;;;;;;;;;5005658;28;20208;-68
2023/07/22 01:27:26;;;;;;;2.55;2.33;;;;;;;;;;5008732;28;20213;-67
2023/07/22 01:29:53;;;;;;;4.00;2.65;;;;;;;;;;5009787;28;20223;-67
2023/07/22 01:32:21;;;;;;;3.03;2.20;;;;;;;;;;5005840;28;20204;-67
2023/07/22 01:34:48;;;;;;;5.28;2.13;;;;;;;;;;5009006;28;20212;-68
2023/07/22 01:37:15;;;;;;;3.05;2.38;;;;;;;;;;5006263;28;20231;-67
2023/07/22 01:39:43;;;;;;;2.70;2.50;;;;;;;;;;5009739;28;20224;-67
2023/07/22 01:42:11;;;;;;;2.70;2.50;;;;;;;;;;5006493;28;20255;-67
2023/07/22 01:44:38;;;;;;;3.03;2.60;;;;;;;;;;5000576;28;20241;-68
2023/07/22 01:47:06;;;;;;;3.15;2.72;;;;;;;;;;5007692;28;20201;-68
2023/07/22 01:49:34;;;;;;;4.30;2.85;;;;;;;;;;5004058;28;20232;-68
2023/07/22 01:52:01;;;;;;;2.88;2.67;;;;;;;;;;5012483;28;20255;-67
2023/07/22 01:54:28;;;;;;;3.22;2.80;;;;;;;;;;5001439;28;20207;-67
2023/07/22 01:56:55;;;;;;;3.33;2.75;;;;;;;;;;5005766;28;20205;-67
2023/07/22 01:59:24;;;;;;;3.30;2.70;;;;;;;;;;5007052;28;20204;-67
2023/07/22 02:01:51;;;;;;;3.20;2.90;;;;;;;;;;5008365;28;20224;-67
2023/07/22 02:04:18;;;;;;;3.20;2.90;;;;;;;;;;5009299;28;20204;-67
2023/07/22 02:06:45;;;;;;;3.10;2.90;;;;;;;;;;5006465;28;20206;-67
2023/07/22 02:09:13;;;;;;;2.90;2.70;;;;;;;;;;5004306;28;20205;-68
2023/07/22 02:11:40;;;;;;;2.78;2.58;;;;;;;;;;5005538;28;20209;-67
2023/07/22 02:14:08;;;;;;;2.80;2.60;;;;;;;;;;5012198;28;20287;-67
2023/07/22 02:16:36;;;;;;;2.80;2.45;;;;;;;;;;5006245;28;20262;-68
2023/07/22 02:19:04;;;;;;;3.10;2.60;;;;;;;;;;5007491;28;20229;-67
2023/07/22 02:21:31;;;;;;;2.88;2.67;;;;;;;;;;5003759;28;20208;-67
2023/07/22 02:23:58;;;;;;;5.93;2.92;;;;;;;;;;5005202;28;20201;-67
2023/07/22 02:26:25;;;;;;;3.55;2.80;;;;;;;;;;5004520;28;20212;-67
2023/07/22 02:28:52;;;;;;;3.97;3.20;;;;;;;;;;5014010;28;20205;-68
2023/07/22 02:31:21;;;;;;;3.30;2.85;;;;;;;;;;5007773;28;20209;-67
2023/07/22 02:33:50;;;;;;;3.22;2.60;;;;;;;;;;5008252;28;20207;-67
2023/07/22 02:36:17;;;;;;;3.13;2.55;;;;;;;;;;5005056;28;20200;-67
2023/07/22 02:38:45;;;;;;;2.90;2.70;;;;;;;;;;5002130;28;20288;-67
2023/07/22 02:41:12;;;;;;;3.20;3.00;;;;;;;;;;5003137;28;20209;-68
2023/07/22 02:43:40;;;;;;;2.95;2.75;;;;;;;;;;5003736;28;20236;-68
2023/07/22 02:46:08;;;;;;;3.42;2.70;;;;;;;;;;5002651;28;20233;-67
2023/07/22 02:48:35;;;;;;;2.90;2.70;;;;;;;;;;5004626;28;20205;-67
2023/07/22 02:51:07;;;;;;;3.67;2.60;;;;;;;;;;4996994;28;20212;-67
2023/07/22 02:53:36;;;;;;;3.13;2.90;;;;;;;;;;5002732;28;20281;-67
2023/07/22 02:56:04;;;;;;;2.95;2.75;;;;;;;;;;4999216;28;20296;-67
2023/07/22 02:58:31;;;;;;;3.10;2.80;;;;;;;;;;4998587;28;20278;-67
2023/07/22 03:00:58;;;;;;;3.88;2.78;;;;;;;;;;4996370;28;20345;-68
2023/07/22 03:03:25;;;;;;;3.72;2.80;;;;;;;;;;5005214;28;20220;-67
2023/07/22 03:05:53;;;;;;;4.20;2.50;;;;;;;;;;5001204;28;20200;-68
2023/07/22 03:08:21;;;;;;;3.42;3.08;;;;;;;;;;5005729;28;20206;-68
2023/07/22 03:10:49;;;;;;;3.35;2.70;;;;;;;;;;4999585;28;20205;-67
2023/07/22 03:13:16;;;;;;;2.80;2.60;;;;;;;;;;5005957;28;20205;-67
2023/07/22 03:15:44;;;;;;;4.40;2.95;;;;;;;;;;5009494;28;20210;-68
2023/07/22 03:18:11;;;;;;;4.75;3.15;;;;;;;;;;5009277;28;20204;-68
2023/07/22 03:20:38;;;;;;;4.18;3.13;;;;;;;;;;5007247;28;20209;-67
2023/07/22 03:23:06;;;;;;;3.17;2.95;;;;;;;;;;5002585;28;20223;-67
2023/07/22 03:25:36;;;;;;;4.60;2.65;;;;;;;;;;5005851;28;20277;-67
2023/07/22 03:28:04;;;;;;;3.15;2.85;;;;;;;;;;5004122;28;20300;-67
2023/07/22 03:30:32;;;;;;;3.10;2.80;;;;;;;;;;5004533;28;20216;-67
2023/07/22 03:33:00;;;;;;;2.95;2.75;;;;;;;;;;5008846;28;20196;-67
2023/07/22 03:35:27;;;;;;;3.45;3.00;;;;;;;;;;5006741;28;20266;-68
2023/07/22 03:37:54;;;;;;;2.88;2.67;;;;;;;;;;5006461;28;20273;-67
2023/07/22 03:40:26;;;;;;;2.92;2.72;;;;;;;;;;5006013;28;20206;-67
2023/07/22 03:42:55;;;;;;;3.33;2.75;;;;;;;;;;5008576;28;20300;-67
2023/07/22 03:45:23;;;;;;;3.67;2.90;;;;;;;;;;5004525;28;20232;-67
2023/07/22 03:47:52;;;;;;;3.03;2.83;;;;;;;;;;5003285;28;20209;-67
2023/07/22 03:50:19;;;;;;;3.05;2.83;;;;;;;;;;4997099;28;20309;-67
2023/07/22 03:52:46;;;;;;;2.85;2.63;;;;;;;;;;5005204;28;20208;-67
2023/07/22 03:55:13;;;;;;;3.05;2.72;;;;;;;;;;5005683;28;20205;-67
2023/07/22 03:57:40;;;;;;;3.97;2.80;;;;;;;;;;5002021;28;20293;-67
2023/07/22 04:00:10;;;;;;;4.28;3.00;;;;;;;;;;5005980;28;20205;-67
2023/07/22 04:02:37;;;;;;;5.50;3.00;;;;;;;;;;5007420;28;20260;-67
2023/07/22 04:05:05;;;;;;;3.78;2.85;;;;;;;;;;5008675;28;20242;-67
2023/07/22 04:07:32;;;;;;;3.17;2.88;;;;;;;;;;5003741;28;20204;-67
2023/07/22 04:09:59;;;;;;;2.65;2.45;;;;;;;;;;5010373;28;20208;-67
2023/07/22 04:12:26;;;;;;;3.40;3.10;;;;;;;;;;5004524;28;20209;-67
2023/07/22 04:14:53;;;;;;;4.10;2.83;;;;;;;;;;5003366;28;20204;-67
2023/07/22 04:17:22;;;;;;;2.80;2.60;;;;;;;;;;4998904;28;20320;-67
2023/07/22 04:19:49;;;;;;;3.28;2.92;;;;;;;;;;5008538;28;20205;-67
2023/07/22 04:22:16;;;;;;;3.55;2.83;;;;;;;;;;5009685;28;20231;-67
2023/07/22 04:24:43;;;;;;;3.90;2.70;;;;;;;;;;5006928;28;20205;-67
2023/07/22 04:27:10;;;;;;;2.92;2.63;;;;;;;;;;5006709;28;20197;-67
2023/07/22 04:29:38;;;;;;;2.70;2.50;;;;;;;;;;5002288;28;20204;-67
2023/07/22 04:32:05;;;;;;;3.30;3.00;;;;;;;;;;5004649;28;20204;-67
2023/07/22 04:34:34;;;;;;;3.25;2.80;;;;;;;;;;5007609;28;20203;-67
2023/07/22 04:37:01;;;;;;;3.20;2.78;;;;;;;;;;5006643;28;20204;-67
2023/07/22 04:39:28;;;;;;;3.00;2.80;;;;;;;;;;5003739;28;20249;-67
2023/07/22 04:41:56;;;;;;;4.68;3.05;;;;;;;;;;5005785;28;20201;-67
2023/07/22 04:44:23;;;;;;;3.20;2.83;;;;;;;;;;5004869;28;20231;-67
2023/07/22 04:46:51;;;;;;;3.72;2.70;;;;;;;;;;5006249;28;20244;-67
2023/07/22 04:49:18;;;;;;;3.67;3.17;;;;;;;;;;5003713;28;20215;-67
2023/07/22 04:51:47;;;;;;;3.38;2.90;;;;;;;;;;5007888;28;20308;-67
2023/07/22 04:54:15;;;;;;;3.33;2.97;;;;;;;;;;5007286;28;20203;-67
2023/07/22 04:56:42;;;;;;;3.13;2.92;;;;;;;;;;5011556;28;20316;-67
2023/07/22 04:59:09;;;;;;;3.33;2.70;;;;;;;;;;5011581;28;20231;-67
2023/07/22 05:01:37;;;;;;;3.38;3.08;;;;;;;;;;5008621;28;20236;-67
2023/07/22 05:04:04;;;;;;;3.10;2.90;;;;;;;;;;5008420;28;20293;-67
2023/07/22 05:06:32;;;;;;;2.80;2.60;;;;;;;;;;5008632;28;20243;-67
2023/07/22 05:09:01;;;;;;;3.42;3.13;;;;;;;;;;5011118;28;20216;-67
2023/07/22 05:11:28;;;;;;;4.65;3.20;;;;;;;;;;5009036;28;20224;-67
2023/07/22 05:13:55;;;;;;;4.22;3.05;;;;;;;;;;5010864;28;20256;-67
2023/07/22 05:16:23;;;;;;;3.35;3.05;;;;;;;;;;5007381;28;20201;-67
2023/07/22 05:18:50;;;;;;;3.53;3.15;;;;;;;;;;5005708;28;20281;-66
2023/07/22 05:21:17;;;;;;;3.53;3.15;;;;;;;;;;5006127;28;20201;-67
2023/07/22 05:23:45;;;;;;;4.53;3.22;;;;;;;;;;5004963;28;20235;-67
2023/07/22 05:26:13;;;;;;;4.43;3.22;;;;;;;;;;5007323;28;20215;-67
2023/07/22 05:28:40;;;;;;;3.50;3.20;;;;;;;;;;5004676;28;20205;-67
2023/07/22 05:31:07;;;;;;;3.20;2.95;;;;;;;;;;5010243;28;20197;-67
2023/07/22 05:33:35;;;;;;;2.88;2.67;;;;;;;;;;5006210;28;20208;-67
2023/07/22 05:36:02;;;;;;;6.35;3.50;;;;;;;;;;5010014;28;20197;-67
2023/07/22 05:38:31;;;;;;;4.80;2.88;;;;;;;;;;5010120;28;20209;-67
2023/07/22 05:40:58;;;;;;;3.95;2.90;;;;;;;;;;5007574;28;20209;-67
2023/07/22 05:43:26;;;;;;;2.85;2.65;;;;;;;;;;5005662;28;20214;-67
2023/07/22 05:45:54;;;;;;;4.32;2.92;;;;;;;;;;5001989;28;20233;-67
2023/07/22 05:48:21;;;;;;;5.57;3.05;;;;;;;;;;5009332;28;20209;-67
2023/07/22 05:50:48;;;;;;;3.40;3.10;;;;;;;;;;5007651;28;20236;-67
2023/07/22 05:53:16;;;;;;;3.58;3.28;;;;;;;;;;5009928;28;20205;-67
2023/07/22 05:55:43;;;;;;;3.40;3.10;;;;;;;;;;5009995;28;20219;-67
2023/07/22 05:58:17;;;;;;;2.80;2.50;;;;;;;;;;5006968;28;20204;-67
2023/07/22 06:00:46;;;;;;;5.43;3.00;;;;;;;;;;5008871;28;20205;-67
2023/07/22 06:03:13;;;;;;;3.40;2.92;;;;;;;;;;5010080;28;20287;-67
2023/07/22 06:05:40;;;;;;;3.33;3.03;;;;;;;;;;5006690;28;20205;-68
2023/07/22 06:08:07;;;;;;;2.75;2.55;;;;;;;;;;5007780;28;20221;-67
2023/07/22 06:10:36;;;;;;;3.85;3.28;;;;;;;;;;5000675;28;20224;-68
2023/07/22 06:13:04;;;;;;;5.70;2.92;;;;;;;;;;5004785;28;20239;-67
2023/07/22 06:15:31;;;;;;;2.75;2.55;;;;;;;;;;5000990;28;20217;-67
2023/07/22 06:17:59;;;;;;;3.22;2.95;;;;;;;;;;5007353;28;20272;-67
2023/07/22 06:20:26;;;;;;;3.30;3.00;;;;;;;;;;5004230;28;20205;-67
2023/07/22 06:22:54;;;;;;;3.70;3.40;;;;;;;;;;5005328;28;20211;-67
2023/07/22 06:25:21;;;;;;;5.70;3.20;;;;;;;;;;5002145;28;20306;-67
2023/07/22 06:27:48;;;;;;;2.90;2.70;;;;;;;;;;5005336;28;20220;-68
2023/07/22 06:30:16;;;;;;;4.25;2.90;;;;;;;;;;5003495;28;20228;-67
2023/07/22 06:32:43;;;;;;;3.13;2.80;;;;;;;;;;5005515;28;20259;-67
2023/07/22 06:35:11;;;;;;;2.90;2.70;;;;;;;;;;5007914;28;20197;-67
2023/07/22 06:37:39;;;;;;;3.20;2.90;;;;;;;;;;5007988;28;20224;-67
2023/07/22 06:40:07;;;;;;;4.10;2.50;;;;;;;;;;5007014;28;20205;-68
2023/07/22 06:42:34;;;;;;;3.35;3.10;;;;;;;;;;5002803;28;20205;-67
2023/07/22 06:45:01;;;;;;;3.15;2.92;;;;;;;;;;5003504;28;20240;-68
2023/07/22 06:47:28;;;;;;;2.95;2.60;;;;;;;;;;5004775;28;20222;-67
2023/07/22 06:49:55;;;;;;;3.20;2.90;;;;;;;;;;5001046;28;20277;-67
2023/07/22 06:52:24;;;;;;;3.13;2.80;;;;;;;;;;5002977;28;20219;-67
2023/07/22 06:54:51;;;;;;;3.05;2.80;;;;;;;;;;4998246;28;20205;-67
2023/07/22 06:57:18;;;;;;;4.90;3.10;;;;;;;;;;5005156;28;20209;-67
2023/07/22 06:59:45;;;;;;;3.00;2.78;;;;;;;;;;5004088;28;20209;-67
2023/07/22 07:02:12;;;;;;;5.95;3.25;;;;;;;;;;4998882;28;20209;-67
2023/07/22 07:04:40;;;;;;;5.40;3.45;;;;;;;;;;5012720;28;20231;-68
2023/07/22 07:07:07;;;;;;;4.90;3.60;;;;;;;;;;5001953;28;20303;-67
2023/07/22 07:09:36;;;;;;;3.78;3.45;;;;;;;;;;5001046;28;20208;-67
2023/07/22 07:12:03;;;;;;;4.00;3.70;;;;;;;;;;5000707;28;20205;-67
2023/07/22 07:14:30;;;;;;;5.30;4.20;;;;;;;;;;5001657;28;20201;-67
2023/07/22 07:16:58;;;;;;;5.13;4.50;;;;;;;;;;5001049;28;20212;-68
2023/07/22 07:19:25;;;;;;;5.47;4.70;;;;;;;;;;5003795;28;20205;-68
2023/07/22 07:21:52;;;;;;;4.18;3.78;;;;;;;;;;5005668;28;20252;-68
2023/07/22 07:24:19;;;;;;;4.88;4.47;;;;;;;;;;5001614;28;20225;-68
2023/07/22 07:26:48;;;;;;;5.88;4.60;;;;;;;;;;5001913;28;20216;-68
2023/07/22 07:29:15;;;;;;;5.63;4.88;;;;;;;;;;5007581;28;20299;-68
2023/07/22 07:31:42;;;;;;;5.35;4.43;;;;;;;;;;4994142;28;20219;-68
2023/07/22 07:34:09;;;;;;;5.00;4.43;;;;;;;;;;5003755;28;20205;-68
2023/07/22 07:36:36;;;;;;;4.38;3.97;;;;;;;;;;5004505;28;20200;-68
2023/07/22 07:39:04;;;;;;;6.70;4.53;;;;;;;;;;5003264;28;20204;-68
2023/07/22 07:41:31;;;;;;;4.95;4.40;;;;;;;;;;4998298;28;20205;-68
2023/07/22 07:43:59;;;;;;;5.05;4.03;;;;;;;;;;5007517;28;20228;-68
2023/07/22 07:46:28;;;;;;;4.82;4.03;;;;;;;;;;5004075;28;20237;-68
2023/07/22 07:48:56;;;;;;;6.30;4.05;;;;;;;;;;4998392;28;20207;-68
2023/07/22 07:51:24;;;;;;;6.85;4.55;;;;;;;;;;5003694;28;20197;-68
2023/07/22 07:53:52;;;;;;;6.85;4.45;;;;;;;;;;5010059;28;20206;-68
2023/07/22 07:56:20;;;;;;;4.90;3.95;;;;;;;;;;4997998;28;20210;-69
2023/07/22 07:58:47;;;;;;;3.95;3.65;;;;;;;;;;5006280;28;20275;-69
2023/07/22 08:01:16;;;;;;;5.15;4.07;;;;;;;;;;5002114;28;20220;-69
2023/07/22 08:03:44;;;;;;;7.05;3.90;;;;;;;;;;5003087;28;20201;-68
2023/07/22 08:06:11;;;;;;;4.07;3.75;;;;;;;;;;4990267;28;20220;-68
2023/07/22 08:08:39;;;;;;;5.10;3.75;;;;;;;;;;4994339;28;20291;-68
2023/07/22 08:11:08;;;;;;;4.88;3.70;;;;;;;;;;4996441;28;20205;-67
2023/07/22 08:13:35;;;;;;;4.10;3.70;;;;;;;;;;5002118;28;20201;-69
2023/07/22 08:16:03;;;;;;;4.18;3.75;;;;;;;;;;4999911;28;20217;-67
2023/07/22 08:18:31;;;;;;;5.70;3.78;;;;;;;;;;4997118;28;20231;-69
2023/07/22 08:20:59;;;;;;;4.80;4.30;;;;;;;;;;5005913;28;20208;-68
2023/07/22 08:23:26;;;;;;;4.20;3.80;;;;;;;;;;5008898;28;20205;-69
2023/07/22 08:25:53;;;;;;;5.63;3.60;;;;;;;;;;5007315;28;20231;-69
2023/07/22 08:28:20;;;;;;;7.38;4.40;;;;;;;;;;5004251;28;20216;-68
2023/07/22 08:30:49;;;;;;;5.80;3.60;;;;;;;;;;5006623;28;20201;-69
2023/07/22 08:33:17;;;;;;;6.88;4.00;;;;;;;;;;5004086;28;20209;-69
2023/07/22 08:35:47;;;;;;;7.75;3.97;;;;;;;;;;5009454;28;20207;-68
2023/07/22 08:38:15;;;;;;;5.70;4.13;;;;;;;;;;5006061;28;20205;-67
2023/07/22 08:40:42;;;;;;;4.03;3.70;;;;;;;;;;5008386;28;20211;-69
2023/07/22 08:43:11;;;;;;;3.83;3.53;;;;;;;;;;5001698;28;20201;-70
2023/07/22 08:45:40;;;;;;;4.28;3.88;;;;;;;;;;5007223;28;20232;-68
2023/07/22 08:48:09;;;;;;;3.95;3.40;;;;;;;;;;5006958;28;20240;-69
2023/07/22 08:50:38;;;;;;;3.70;3.40;;;;;;;;;;5005883;28;20228;-69
2023/07/22 08:53:07;;;;;;;4.20;3.70;;;;;;;;;;5008400;28;20200;-69
2023/07/22 08:55:34;;;;;;;4.88;3.50;;;;;;;;;;5007500;28;20200;-69
2023/07/22 08:58:01;;;;;;;3.70;3.40;;;;;;;;;;5008766;28;20220;-70
2023/07/22 09:00:29;;;;;;;5.95;3.70;;;;;;;;;;5004946;28;20275;-69
2023/07/22 09:02:56;;;;;;;4.80;3.67;;;;;;;;;;4997040;28;20235;-69
2023/07/22 09:05:23;;;;;;;4.38;3.40;;;;;;;;;;5000094;28;20241;-68
2023/07/22 09:07:51;;;;;;;4.35;3.33;;;;;;;;;;4988841;28;20236;-66
2023/07/22 09:10:20;;;;;;;4.70;3.95;;;;;;;;;;4992483;28;20232;-71
2023/07/22 09:12:48;;;;;;;5.65;3.70;;;;;;;;;;4991742;28;20221;-66
2023/07/22 09:15:16;;;;;;;5.88;3.63;;;;;;;;;;5005549;28;20225;-67
2023/07/22 09:17:43;;;;;;;4.70;3.60;;;;;;;;;;4981827;28;20239;-66
2023/07/22 09:20:14;;;;;;;4.47;3.35;;;;;;;;;;5019746;28;20242;-66
2023/07/22 09:22:45;;;;;;;5.85;3.63;;;;;;;;;;4987352;28;20246;-65
2023/07/22 09:25:16;;;;;;;4.38;2.97;;;;;;;;;;5001386;28;20224;-66
2023/07/22 09:27:44;;;;;;;3.75;3.45;;;;;;;;;;4988337;28;20232;-68
2023/07/22 09:30:25;;;;;;;4.20;3.30;;;;;;;;;;5011567;28;20204;-67
2023/07/22 09:32:52;;;;;;;4.07;3.35;;;;;;;;;;5008240;28;20207;-66
2023/07/22 09:35:20;;;;;;;3.75;3.25;;;;;;;;;;5004434;28;20233;-66
2023/07/22 09:37:47;;;;;;;5.50;3.60;;;;;;;;;;5007408;28;20205;-67
2023/07/22 09:40:21;;;;;;;5.75;3.60;;;;;;;;;;5003133;28;20208;-65
2023/07/22 09:42:51;;;;;;;5.25;3.30;;;;;;;;;;5005905;28;20213;-66
2023/07/22 09:45:18;;;;;;;5.05;3.30;;;;;;;;;;5004329;28;20268;-67
2023/07/22 09:47:46;;;;;;;4.95;3.42;;;;;;;;;;5008365;28;20209;-65
2023/07/22 09:50:15;;;;;;;4.15;3.67;;;;;;;;;;5004559;28;20205;-67
2023/07/22 09:52:53;;;;;;;3.83;3.38;;;;;;;;;;5004704;28;20214;-66
2023/07/22 09:55:22;;;;;;;3.78;3.47;;;;;;;;;;5005102;28;20220;-66
2023/07/22 09:57:51;;;;;;;5.90;3.40;;;;;;;;;;5008762;28;20292;-66
2023/07/22 10:00:20;;;;;;;3.83;3.42;;;;;;;;;;5004611;28;20215;-66
2023/07/22 10:02:49;;;;;;;3.63;3.33;;;;;;;;;;4998116;28;20205;-66
2023/07/22 10:05:17;;;;;;;3.60;3.30;;;;;;;;;;5004639;28;20243;-66
2023/07/22 10:07:45;;;;;;;3.67;3.13;;;;;;;;;;5001583;28;20216;-66
2023/07/22 10:10:13;;;;;;;4.80;3.30;;;;;;;;;;5007679;28;20213;-65
2023/07/22 10:12:42;;;;;;;6.82;3.17;;;;;;;;;;5000721;28;20228;-66
2023/07/22 10:15:11;;;;;;;5.70;3.33;;;;;;;;;;5002477;28;20209;-65
2023/07/22 10:17:39;;;;;;;4.10;3.10;;;;;;;;;;5000302;28;20209;-65
2023/07/22 10:20:07;;;;;;;3.97;3.42;;;;;;;;;;5004447;28;20201;-66
2023/07/22 10:22:36;;;;;;;3.25;2.95;;;;;;;;;;5011432;28;20291;-65
2023/07/22 10:25:05;;;;;;;4.18;3.00;;;;;;;;;;5004490;28;20300;-66
2023/07/22 10:27:33;;;;;;;3.72;3.22;;;;;;;;;;5002828;28;20205;-65
2023/07/22 10:30:00;;;;;;;3.90;3.22;;;;;;;;;;5000642;28;20207;-67
2023/07/22 10:32:34;;;;;;;4.05;3.42;;;;;;;;;;5009500;28;20212;-64
2023/07/22 10:35:01;;;;;;;4.38;3.30;;;;;;;;;;5000272;28;20300;-66
2023/07/22 10:37:31;;;;;;;3.63;3.10;;;;;;;;;;5001761;28;20215;-66
2023/07/22 10:40:00;;;;;;;4.10;3.35;;;;;;;;;;5007036;28;20259;-66
2023/07/22 10:42:28;;;;;;;3.60;3.25;;;;;;;;;;5006020;28;20211;-65
2023/07/22 10:44:55;;;;;;;3.30;3.00;;;;;;;;;;5009946;28;20241;-69
2023/07/22 10:47:37;;;;;;;5.00;3.33;;;;;;;;;;5009801;28;20211;-68
2023/07/22 10:50:09;;;;;;;4.18;3.35;;;;;;;;;;5010100;28;20219;-70
2023/07/22 10:52:40;;;;;;;3.50;2.92;;;;;;;;;;5002251;28;20223;-69
2023/07/22 10:55:15;;;;;;;3.35;3.05;;;;;;;;;;5004218;28;20255;-68
2023/07/22 10:57:49;;;;;;;4.57;3.05;;;;;;;;;;5005632;28;20238;-69
2023/07/22 11:00:20;;;;;;;4.30;3.05;;;;;;;;;;5008473;28;20204;-69
2023/07/22 11:02:49;;;;;;;3.10;2.90;;;;;;;;;;5003003;28;20213;-70
2023/07/22 11:05:17;;;;;;;3.80;3.20;;;;;;;;;;5001665;28;20224;-69
2023/07/22 11:07:47;;;;;;;3.10;2.90;;;;;;;;;;5001351;28;20209;-69
2023/07/22 11:10:16;;;;;;;4.55;3.00;;;;;;;;;;5003395;28;20205;-69
2023/07/22 11:12:45;;;;;;;5.38;3.00;;;;;;;;;;5003686;28;20212;-68
2023/07/22 11:15:12;;;;;;;3.15;2.80;;;;;;;;;;5002419;28;20224;-69
2023/07/22 11:17:39;;;;;;;4.93;2.85;;;;;;;;;;5009091;28;20211;-69
2023/07/22 11:20:08;;;;;;;3.10;2.80;;;;;;;;;;5000486;28;20202;-70
2023/07/22 11:22:35;;;;;;;6.68;3.03;;;;;;;;;;5003098;28;20209;-68
2023/07/22 11:25:03;;;;;;;3.88;3.22;;;;;;;;;;5007129;28;20227;-68
2023/07/22 11:27:30;;;;;;;3.05;2.85;;;;;;;;;;5004451;28;20213;-69
2023/07/22 11:29:59;;;;;;;3.60;3.28;;;;;;;;;;5002803;28;20205;-69
2023/07/22 11:32:26;;;;;;;4.15;3.42;;;;;;;;;;5001582;28;20201;-70
2023/07/22 11:34:53;;;;;;;3.50;3.15;;;;;;;;;;5000025;28;20205;-70
2023/07/22 11:37:22;;;;;;;3.17;2.97;;;;;;;;;;4999947;28;20271;-69
2023/07/22 11:39:49;;;;;;;3.72;3.42;;;;;;;;;;5010718;28;20201;-69
2023/07/22 11:42:17;;;;;;;3.50;3.20;;;;;;;;;;4999228;28;20290;-69
2023/07/22 11:44:44;;;;;;;4.70;3.25;;;;;;;;;;5001739;28;20247;-68
2023/07/22 11:47:12;;;;;;;3.58;3.22;;;;;;;;;;5002890;28;20205;-68
2023/07/22 11:49:39;;;;;;;4.50;2.90;;;;;;;;;;5002912;28;20200;-67
2023/07/22 11:52:08;;;;;;;3.60;3.20;;;;;;;;;;5004575;28;20201;-69
2023/07/22 11:54:37;;;;;;;4.72;3.38;;;;;;;;;;4998305;28;20228;-70
2023/07/22 11:57:15;;;;;;;4.25;3.70;;;;;;;;;;5004113;28;20210;-69
2023/07/22 11:59:45;;;;;;;7.75;3.25;;;;;;;;;;4999244;28;20209;-67
2023/07/22 12:02:14;;;;;;;3.50;3.20;;;;;;;;;;5001292;28;20209;-70
2023/07/22 12:04:41;;;;;;;5.28;3.40;;;;;;;;;;5002018;28;20208;-69
2023/07/22 12:07:22;;;;;;;3.40;3.10;;;;;;;;;;5004375;28;20241;-68
2023/07/22 12:09:51;;;;;;;3.42;3.13;;;;;;;;;;4994493;28;20211;-68
2023/07/22 12:12:18;;;;;;;5.97;3.47;;;;;;;;;;5003934;28;20208;-69
2023/07/22 12:14:45;;;;;;;3.20;2.88;;;;;;;;;;5005415;28;20205;-68
2023/07/22 12:17:13;;;;;;;4.72;3.00;;;;;;;;;;4998898;28;20212;-70
2023/07/22 12:19:40;;;;;;;4.65;2.97;;;;;;;;;;4983538;28;20216;-71
2023/07/22 12:22:08;;;;;;;5.00;3.63;;;;;;;;;;4998612;28;20213;-70
2023/07/22 12:24:35;;;;;;;3.75;3.28;;;;;;;;;;5001943;28;20239;-68
2023/07/22 12:27:04;;;;;;;3.88;3.40;;;;;;;;;;5004754;28;20228;-68
2023/07/22 12:29:31;;;;;;;4.03;3.20;;;;;;;;;;5003300;28;20232;-70
2023/07/22 12:31:58;;;;;;;4.97;3.10;;;;;;;;;;5004045;28;20258;-69
2023/07/22 12:34:25;;;;;;;6.82;3.05;;;;;;;;;;5001725;28;20209;-70
2023/07/22 12:36:53;;;;;;;3.42;3.13;;;;;;;;;;5008137;28;20201;-69
2023/07/22 12:39:20;;;;;;;3.38;3.10;;;;;;;;;;5002195;28;20209;-67
2023/07/22 12:41:47;;;;;;;3.70;3.03;;;;;;;;;;5008147;28;20209;-68
2023/07/22 12:44:15;;;;;;;6.78;3.00;;;;;;;;;;5001503;28;20214;-71
2023/07/22 12:46:43;;;;;;;4.25;3.13;;;;;;;;;;5000430;28;20280;-70
2023/07/22 12:49:11;;;;;;;4.25;2.58;;;;;;;;;;5003026;28;20255;-68
2023/07/22 12:51:38;;;;;;;3.95;3.00;;;;;;;;;;4997684;28;20201;-68
2023/07/22 12:54:05;;;;;;;4.50;2.90;;;;;;;;;;4991511;28;20240;-71
2023/07/22 12:56:32;;;;;;;3.30;3.00;;;;;;;;;;4994391;28;20240;-67
2023/07/22 12:58:59;;;;;;;5.45;3.03;;;;;;;;;;5001538;28;20205;-69
2023/07/22 13:01:28;;;;;;;3.35;3.03;;;;;;;;;;5004239;28;20291;-67
2023/07/22 13:03:55;;;;;;;4.43;2.83;;;;;;;;;;5004146;28;20205;-69
2023/07/22 13:06:22;;;;;;;7.13;3.00;;;;;;;;;;5004324;28;20232;-70
2023/07/22 13:08:49;;;;;;;4.50;3.03;;;;;;;;;;4999781;28;20201;-70
2023/07/22 13:11:17;;;;;;;3.78;3.10;;;;;;;;;;5004913;28;20224;-70
2023/07/22 13:13:44;;;;;;;5.32;2.88;;;;;;;;;;5006276;28;20205;-69
2023/07/22 13:16:11;;;;;;;4.82;3.38;;;;;;;;;;5006541;28;20207;-70
2023/07/22 13:18:39;;;;;;;3.90;3.35;;;;;;;;;;5004789;28;20231;-69
2023/07/22 13:21:07;;;;;;;3.97;3.38;;;;;;;;;;5009170;28;20264;-69
2023/07/22 13:23:35;;;;;;;4.95;3.15;;;;;;;;;;5009588;28;20204;-67
2023/07/22 13:26:02;;;;;;;3.75;3.30;;;;;;;;;;5008228;28;20221;-69
2023/07/22 13:28:29;;;;;;;3.95;3.60;;;;;;;;;;5004704;28;20204;-70
2023/07/22 13:30:56;;;;;;;3.47;3.17;;;;;;;;;;5008628;28;20212;-70
2023/07/22 13:33:23;;;;;;;6.20;3.42;;;;;;;;;;5005672;28;20206;-69
2023/07/22 13:35:52;;;;;;;3.00;2.80;;;;;;;;;;5006607;28;20286;-71
2023/07/22 13:38:19;;;;;;;4.47;2.90;;;;;;;;;;5003748;28;20215;-71
2023/07/22 13:40:46;;;;;;;4.38;2.97;;;;;;;;;;5002475;28;20212;-70
2023/07/22 13:43:14;;;;;;;3.95;2.78;;;;;;;;;;5005562;28;20205;-72
2023/07/22 13:45:41;;;;;;;5.53;2.92;;;;;;;;;;5005207;28;20240;-71
2023/07/22 13:48:08;;;;;;;3.63;2.75;;;;;;;;;;5000934;28;20206;-70
2023/07/22 13:50:35;;;;;;;5.93;3.05;;;;;;;;;;5005283;28;20200;-70
2023/07/22 13:53:04;;;;;;;3.97;2.78;;;;;;;;;;5005098;28;20205;-72
2023/07/22 13:55:31;;;;;;;6.05;3.00;;;;;;;;;;5006861;28;20211;-71
2023/07/22 13:57:58;;;;;;;5.50;3.20;;;;;;;;;;5001097;28;20204;-72
2023/07/22 14:00:25;;;;;;;3.33;3.03;;;;;;;;;;5009604;28;20220;-70
2023/07/22 14:02:52;;;;;;;4.40;3.30;;;;;;;;;;5005088;28;20227;-67
2023/07/22 14:05:20;;;;;;;3.47;3.10;;;;;;;;;;5002887;28;20208;-67
2023/07/22 14:07:47;;;;;;;3.08;2.85;;;;;;;;;;5008238;28;20232;-67
2023/07/22 14:10:15;;;;;;;3.90;3.20;;;;;;;;;;5007513;28;20206;-67
2023/07/22 14:12:42;;;;;;;3.45;3.15;;;;;;;;;;5008965;28;20209;-68
2023/07/22 14:15:11;;;;;;;4.55;2.95;;;;;;;;;;5006825;28;20224;-68
2023/07/22 14:17:38;;;;;;;3.80;3.42;;;;;;;;;;5005267;28;20208;-68
2023/07/22 14:20:06;;;;;;;3.67;3.15;;;;;;;;;;5003891;28;20204;-69
2023/07/22 14:22:33;;;;;;;4.30;3.10;;;;;;;;;;5011859;28;20205;-68
2023/07/22 14:25:01;;;;;;;4.57;3.10;;;;;;;;;;5003265;28;20275;-68
2023/07/22 14:27:29;;;;;;;3.20;2.90;;;;;;;;;;5007685;28;20220;-67
2023/07/22 14:29:56;;;;;;;3.75;3.30;;;;;;;;;;5008688;28;20210;-68
2023/07/22 14:32:23;;;;;;;3.58;3.28;;;;;;;;;;5003323;28;20205;-67
2023/07/22 14:34:51;;;;;;;4.05;3.25;;;;;;;;;;5011656;28;20211;-67
2023/07/22 14:37:18;;;;;;;4.53;3.05;;;;;;;;;;5003089;28;20201;-69
2023/07/22 14:39:46;;;;;;;3.70;3.35;;;;;;;;;;5004057;28;20205;-69
2023/07/22 14:42:13;;;;;;;5.60;3.35;;;;;;;;;;5008190;28;20205;-69
2023/07/22 14:44:41;;;;;;;4.28;2.90;;;;;;;;;;5004716;28;20212;-68
2023/07/22 14:47:09;;;;;;;5.25;3.17;;;;;;;;;;4998816;28;20225;-68